Boeing Field King County International Airport
KBFI : now visible

Airfield :











YOU CAN JOIN US ON...

 
LOGIN :

Register | Disclaimer

   EN    FR    IT 

 









Legend :    VFR   Marginal VFR   IFR   Intensive IFR   Very Intensive IFR
Visi :
Ceiling :
>= 8 km
>= 3000ft
5 to 8 km
1000 to 3000 ft
1500m to 5 km
500 to 1000 ft
800 to 1500m
200 to 500 ft
< 800m
< 200 ft
Symbols :   Thunderstorms  Fog  Heavy snow  Heavy precipitations  Wind > 20 kt






- Airport Elevation : 21 ft
- IATA code : BFI


KBFI - Boeing Field King County International

CURRENT METAR :
  • 120153Z 12005KT 6SM -RA BR SCT007 OVC039 09/08 A2986 RMK AO2 SLP112 P0001 T00940078

EXPIRED METARs :
  • 120053Z 17006KT 7SM -RA BKN035 OVC048 09/07 A2989 RMK AO2 SLP122 P0002 T00940072
  • 112353Z 16007KT 9SM -RA SCT047 OVC055 10/07 A2991 RMK AO2 SLP127 P0000 60001 T01000072 10100 20083 56018

TAF KBFI
Valid from the 12 at 00:00 until the 13 at 00:00 UTC


112320Z 1200/1224 16010KT P6SM -RA SCT025 OVC040
TEMPO 1200/1204 5SM -RA BR BKN025 OVC040
FM120400 18012KT 5SM -RA BR OVC025
FM120800 18012KT P6SM -SHRA SCT010 BKN018 OVC035
FM121800 18012KT P6SM -RA BKN025 OVC040



MET'MAP, your aeronautical weather chart ! - Copyright ORBIFLY December 2007 - Disclaimer

ORBIFLY MET'MAP TEAM :

Programming & Development : Alexandra Zaïnal
Concept & original design : Baudouin d'Aumeries
Assistance for programming : Marc-Olivier Méhu
Technical & hardware support : Manuel Goepfert

Contact : metmap@orbifly.com




SOURCES & CREDITS :

   NOAA       Earth
Advisory